KVNC Airport Information

Runway Information
Runway 04 Length 5000 ft width 150 ft
Elevation 12 ft Threshold 0 ft Heading 45
Runway 22 Length 5000 ft Width 150 ft
Elevation 18 ft Threshold 294 ft Heading 225
Runway 09 Length 5000 ft width 150 ft
Elevation 17 ft Threshold 0 ft Heading 88
Runway 27 Length 5000 ft Width 150 ft
Elevation 19 ft Threshold 0 ft Heading 268
Runway 13 Length 4999 ft width 150 ft
Elevation 15 ft Threshold 0 ft Heading 135
Runway 31 Length 4999 ft Width 150 ft
Elevation 16 ft Threshold 0 ft Heading 315
Airport Frequencies
Type A/D Name TAMPA APP/ Frequency 119.65 MHZ
Type AWOS Name AWOS 1 Frequency 119.275 MHZ
Type CLD Name TAMPA CLNC Frequency 118.075 MHZ
Type UNIC Name CTAF/UNICO Frequency 122.7 MHZ
Airport Navaids
Airport Weather Information & NOTAM
ADDS - METARS form results

(0336 UTC 16 January 2021)
Data provider http://aviationweather.gov/metar/data/
 
METAR text: KVNC 160335Z AUTO 32005KT 6SM BR FEW019 SCT024 BKN028 16/15 A2992 RMK AO2
Conditions at: KVNC (VENICE , FL, US) observed 0335 UTC 16 January 2021
Temperature: 16.0°C (61°F)
Dewpoint: 15.0°C (59°F) [RH = 94%]
Pressure (altimeter): 29.92 inches Hg (1013.3 mb)
Winds: from the NW (320 degrees) at 6 MPH (5 knots; 2.6 m/s)
Visibility: 6 miles (10 km)
Ceiling: 2800 feet AGL
Clouds: few clouds at 1900 feet AGL
scattered clouds at 2400 feet AGL
broken clouds at 2800 feet AGL
Weather: BR  (mist)

METAR text: KVNC 160315Z AUTO 34007KT 5SM BR FEW019 BKN023 OVC028 16/16 A2991 RMK AO2
Conditions at: KVNC (VENICE , FL, US) observed 0315 UTC 16 January 2021
Temperature: 16.0°C (61°F)
Dewpoint: 16.0°C (61°F) [RH = 100%]
Pressure (altimeter): 29.91 inches Hg (1013.0 mb)
Winds: from the NNW (340 degrees) at 8 MPH (7 knots; 3.6 m/s)
Visibility: 5 miles ( 8 km)
Ceiling: 2300 feet AGL
Clouds: few clouds at 1900 feet AGL
broken clouds at 2300 feet AGL
overcast cloud deck at 2800 feet AGL
Weather: BR  (mist)

METAR text: KVNC 160255Z AUTO 33011KT 4SM BR BKN026 BKN047 OVC060 17/16 A2991 RMK AO2
Conditions at: KVNC (VENICE , FL, US) observed 0255 UTC 16 January 2021
Temperature: 17.0°C (63°F)
Dewpoint: 16.0°C (61°F) [RH = 94%]
Pressure (altimeter): 29.91 inches Hg (1013.0 mb)
Winds: from the NNW (330 degrees) at 13 MPH (11 knots; 5.7 m/s)
Visibility: 4 miles ( 6 km)
Ceiling: 2600 feet AGL
Clouds: broken clouds at 2600 feet AGL
broken clouds at 4700 feet AGL
overcast cloud deck at 6000 feet AGL
Weather: BR  (mist)